createdAt,value
2022-08-12T00:04:19.189Z,3.00
2022-08-12T00:09:40.801Z,3.30
2022-08-12T00:15:03.083Z,2.90
2022-08-12T00:20:26.441Z,3.10
2022-08-12T00:26:23.596Z,3.50
2022-08-12T00:31:47.423Z,3.00
2022-08-12T00:37:13.266Z,2.90
2022-08-12T00:42:20.064Z,3.20
2022-08-12T00:47:24.994Z,3.10
2022-08-12T00:52:28.813Z,3.50
2022-08-12T00:57:36.931Z,3.10
2022-08-12T01:02:48.102Z,3.10
2022-08-12T01:08:10.653Z,3.10
2022-08-12T01:13:20.653Z,3.70
2022-08-12T01:18:27.489Z,3.00
2022-08-12T01:23:48.849Z,3.10
2022-08-12T01:29:03.152Z,3.50
2022-08-12T01:34:35.853Z,3.30
2022-08-12T01:39:37.450Z,3.60
2022-08-12T01:44:40.375Z,3.40
2022-08-12T01:50:02.017Z,4.00
2022-08-12T01:55:07.191Z,3.20
2022-08-12T02:00:14.161Z,3.40
2022-08-12T02:06:02.541Z,3.70
2022-08-12T02:11:19.299Z,3.60
2022-08-12T02:16:59.958Z,3.70
2022-08-12T02:22:24.256Z,3.60
2022-08-12T02:27:29.728Z,3.90
2022-08-12T02:32:42.004Z,3.90
2022-08-12T02:37:47.576Z,3.50
2022-08-12T02:42:56.294Z,3.70
2022-08-12T02:48:06.483Z,3.90
2022-08-12T02:53:10.755Z,3.90
2022-08-12T02:58:14.950Z,4.20
2022-08-12T03:03:21.701Z,4.00
2022-08-12T03:08:33.003Z,3.40
2022-08-12T03:13:40.365Z,3.80
2022-08-12T03:18:45.977Z,4.10
2022-08-12T03:23:49.263Z,3.70
2022-08-12T03:28:57.981Z,4.00
2022-08-12T03:34:10.054Z,3.80
2022-08-12T03:39:17.947Z,4.20
2022-08-12T03:44:58.702Z,3.90
2022-08-12T03:50:21.304Z,4.10
2022-08-12T03:55:43.116Z,3.60
2022-08-12T04:00:46.463Z,3.60
2022-08-12T04:05:55.653Z,3.40
2022-08-12T04:11:18.165Z,3.50
2022-08-12T04:16:22.238Z,3.90
2022-08-12T04:21:26.024Z,4.20
2022-08-12T04:26:29.608Z,4.30
2022-08-12T04:31:37.634Z,4.80
2022-08-12T04:36:43.136Z,4.40
2022-08-12T04:41:50.391Z,3.90
2022-08-12T04:47:01.843Z,4.10
2022-08-12T04:52:05.789Z,3.70
2022-08-12T04:57:09.843Z,3.60
2022-08-12T05:02:16.621Z,3.40
2022-08-12T05:07:21.081Z,3.60
2022-08-12T05:12:26.586Z,3.30
2022-08-12T05:17:29.769Z,3.40
2022-08-12T05:22:37.097Z,4.10
2022-08-12T05:27:40.572Z,3.20
2022-08-12T05:33:07.311Z,2.90
2022-08-12T05:38:31.573Z,3.00
2022-08-12T05:43:34.457Z,3.00
2022-08-12T05:48:37.293Z,3.00
2022-08-12T05:53:41.093Z,2.90
2022-08-12T05:58:43.890Z,2.80
2022-08-12T06:03:52.835Z,2.60
2022-08-12T06:08:55.861Z,3.20
2022-08-12T06:13:58.653Z,2.80
2022-08-12T06:19:02.344Z,2.80
2022-08-12T06:24:05.487Z,2.60
2022-08-12T06:29:08.425Z,2.80
2022-08-12T06:35:24.246Z,2.30
2022-08-12T06:39:37.655Z,2.60
2022-08-12T06:44:40.619Z,2.10
2022-08-12T06:49:44.716Z,2.60
2022-08-12T06:54:47.609Z,2.10
2022-08-12T06:59:51.183Z,2.30
2022-08-12T07:04:54.155Z,1.90
2022-08-12T07:10:05.978Z,2.00
2022-08-12T07:15:11.971Z,1.90
2022-08-12T07:20:35.904Z,1.90
2022-08-12T07:25:41.374Z,1.80
2022-08-12T07:30:49.316Z,1.80
2022-08-12T07:35:54.149Z,1.70
2022-08-12T07:41:14.481Z,1.60
2022-08-12T07:46:21.298Z,1.60
2022-08-12T07:51:25.907Z,1.80
2022-08-12T07:56:31.395Z,1.70
2022-08-12T08:01:35.255Z,1.60
2022-08-12T08:06:43.262Z,1.70
2022-08-12T08:12:04.899Z,1.80
2022-08-12T08:17:08.671Z,1.70
2022-08-12T08:22:12.094Z,1.70
2022-08-12T08:27:15.049Z,1.60
2022-08-12T08:32:18.035Z,1.90
2022-08-12T08:37:20.962Z,1.70
2022-08-12T08:42:52.914Z,1.60
2022-08-12T08:47:59.690Z,1.60
2022-08-12T08:53:03.333Z,2.00
2022-08-12T08:58:07.119Z,1.90
2022-08-12T09:03:15.580Z,1.90
2022-08-12T09:08:33.202Z,1.80
2022-08-12T09:14:12.623Z,1.70
2022-08-12T09:19:01.984Z,1.80
2022-08-12T09:24:07.933Z,1.80
2022-08-12T09:30:08.733Z,1.90
2022-08-12T09:34:50.847Z,1.80
2022-08-12T09:40:03.157Z,2.00
2022-08-12T09:45:24.701Z,1.90
2022-08-12T09:50:52.087Z,1.80
2022-08-12T09:56:40.231Z,2.30
2022-08-12T10:01:23.168Z,2.50
2022-08-12T10:06:32.460Z,1.80
2022-08-12T10:12:10.474Z,2.10
2022-08-12T10:17:16.941Z,1.90
2022-08-12T10:22:38.890Z,2.30
2022-08-12T10:28:05.087Z,2.10
2022-08-12T10:33:19.176Z,1.90
2022-08-12T10:38:41.418Z,2.00
2022-08-12T10:43:55.277Z,2.20
2022-08-12T10:49:06.629Z,2.00
2022-08-12T10:54:28.294Z,2.30
2022-08-12T11:00:29.791Z,2.20
2022-08-12T11:04:59.044Z,2.20
2022-08-12T11:10:24.144Z,2.30
2022-08-12T11:16:04.179Z,2.00
2022-08-12T11:20:54.479Z,2.50
2022-08-12T11:26:05.598Z,2.30
2022-08-12T11:31:14.070Z,2.30
2022-08-12T11:36:22.158Z,2.20
2022-08-12T11:41:31.305Z,2.20
2022-08-12T11:46:37.449Z,2.70
2022-08-12T11:51:40.443Z,2.40
2022-08-12T11:56:59.557Z,1.90
2022-08-12T12:02:05.019Z,2.60
2022-08-12T12:07:11.365Z,2.50
2022-08-12T12:12:16.269Z,2.40
2022-08-12T12:17:19.149Z,2.10
2022-08-12T12:22:23.665Z,2.50
2022-08-12T12:28:04.727Z,2.30
2022-08-12T12:33:10.076Z,2.40
2022-08-12T12:38:20.893Z,2.40
2022-08-12T12:43:43.072Z,2.20
2022-08-12T12:48:47.713Z,2.60
2022-08-12T12:54:07.600Z,2.60
2022-08-12T12:59:55.632Z,2.90
2022-08-12T13:04:37.944Z,2.40
2022-08-12T13:09:41.680Z,2.50
2022-08-12T13:14:49.732Z,2.60
2022-08-12T13:19:54.986Z,2.40
2022-08-12T13:30:11.440Z,2.40
2022-08-12T13:35:20.328Z,2.80
2022-08-12T13:40:42.383Z,2.30
2022-08-12T13:45:49.232Z,2.60
2022-08-12T13:50:52.991Z,2.40
2022-08-12T13:55:59.606Z,2.30
2022-08-12T14:01:06.474Z,2.60
2022-08-12T14:06:15.590Z,2.60
2022-08-12T14:11:25.211Z,2.50
2022-08-12T14:16:48.158Z,2.60
2022-08-12T14:21:59.058Z,2.60
2022-08-12T14:27:09.026Z,2.70
2022-08-12T14:32:16.546Z,2.90
2022-08-12T14:37:56.932Z,2.70
2022-08-12T14:42:47.016Z,3.10
2022-08-12T14:47:56.844Z,2.70
2022-08-12T14:58:25.327Z,2.60
2022-08-12T15:03:52.318Z,2.10
2022-08-12T15:13:58.216Z,2.60
2022-08-12T15:19:01.769Z,2.10
2022-08-12T15:24:15.671Z,2.50
2022-08-12T15:29:20.386Z,2.60
2022-08-12T15:34:23.221Z,2.60
2022-08-12T15:39:27.865Z,2.30
2022-08-12T15:44:38.489Z,2.60
2022-08-12T15:50:00.483Z,2.50
2022-08-12T15:55:11.712Z,2.50
2022-08-12T16:00:22.580Z,2.40
2022-08-12T16:06:19.434Z,2.30
2022-08-12T16:11:07.285Z,2.80
2022-08-12T16:16:22.944Z,2.40
2022-08-12T16:21:52.682Z,2.10
2022-08-12T16:27:02.062Z,2.40
2022-08-12T16:32:12.785Z,2.70
2022-08-12T16:37:20.600Z,2.60
2022-08-12T16:42:27.789Z,2.60
2022-08-12T16:47:58.942Z,3.00
2022-08-12T16:53:02.357Z,2.90
2022-08-12T16:58:18.449Z,2.80
2022-08-12T17:03:32.388Z,2.70
2022-08-12T17:08:49.826Z,2.50
2022-08-12T17:13:59.813Z,2.60
2022-08-12T17:19:09.311Z,2.70
2022-08-12T17:24:15.104Z,2.80
2022-08-12T17:29:32.203Z,3.10
2022-08-12T17:35:04.264Z,2.90
2022-08-12T17:40:13.748Z,2.60
2022-08-12T17:45:21.544Z,2.60
2022-08-12T17:50:28.560Z,2.30
2022-08-12T17:55:43.199Z,2.80
2022-08-12T18:00:52.003Z,3.30
2022-08-12T18:06:00.826Z,2.60
2022-08-12T18:12:04.808Z,2.60
2022-08-12T18:16:50.461Z,3.10
2022-08-12T18:22:01.780Z,2.70
2022-08-12T18:27:30.107Z,2.60
2022-08-12T18:32:43.874Z,3.00
2022-08-12T18:38:00.600Z,3.20
2022-08-12T18:43:07.274Z,3.20
2022-08-12T18:48:21.029Z,2.70
2022-08-12T18:54:06.905Z,2.90
2022-08-12T18:58:59.351Z,2.90
2022-08-12T19:04:07.801Z,3.30
2022-08-12T19:09:14.880Z,3.20
2022-08-12T19:14:27.443Z,3.30
2022-08-12T19:19:41.350Z,3.30
2022-08-12T19:25:03.882Z,2.90
2022-08-12T19:30:09.244Z,3.30
2022-08-12T19:40:38.600Z,3.60
2022-08-12T19:45:49.238Z,3.20
2022-08-12T19:50:53.826Z,3.40
2022-08-12T19:55:57.550Z,3.00
2022-08-12T20:01:01.760Z,3.30
2022-08-12T20:06:11.269Z,3.40
2022-08-12T20:12:11.510Z,3.60
2022-08-12T20:16:54.253Z,3.30
2022-08-12T20:22:02.589Z,3.90
2022-08-12T20:27:53.937Z,3.70
2022-08-12T20:32:47.983Z,3.70
2022-08-12T20:38:06.585Z,3.60
2022-08-12T20:43:14.673Z,3.20
2022-08-12T20:48:25.284Z,3.30
2022-08-12T20:53:53.901Z,3.60
2022-08-12T20:58:56.576Z,3.90
2022-08-12T21:04:18.589Z,4.70
2022-08-12T21:09:22.966Z,6.80
2022-08-12T21:14:39.776Z,5.10
2022-08-12T21:19:55.469Z,6.60
2022-08-12T21:24:58.441Z,5.60
2022-08-12T21:30:04.816Z,4.80
2022-08-12T21:35:09.092Z,4.50
2022-08-12T21:40:15.069Z,4.00
2022-08-12T21:45:47.485Z,4.20
2022-08-12T21:50:41.551Z,4.10
2022-08-12T21:55:46.903Z,3.90
2022-08-12T22:00:54.704Z,3.80
2022-08-12T22:06:20.222Z,3.30
2022-08-12T22:11:42.191Z,3.60
2022-08-12T22:16:52.193Z,3.90
2022-08-12T22:21:58.739Z,3.40
2022-08-12T22:27:31.837Z,3.60
2022-08-12T22:32:31.350Z,3.20
2022-08-12T22:37:39.031Z,3.00
2022-08-12T22:43:00.795Z,3.30
2022-08-12T22:48:08.688Z,3.50
2022-08-12T22:53:17.216Z,3.00
2022-08-12T22:58:20.074Z,3.00
2022-08-12T23:03:47.695Z,2.90
2022-08-12T23:08:55.286Z,2.90
2022-08-12T23:19:22.854Z,3.20
2022-08-12T23:24:35.154Z,3.00
2022-08-12T23:29:43.096Z,3.30
2022-08-12T23:34:47.914Z,3.40
2022-08-12T23:45:20.902Z,3.00
2022-08-12T23:50:35.078Z,3.30
2022-08-12T23:55:40.620Z,3.60
